Terminal Aerodrome Forecast
Issued by NWS Caribou, ME

Home | Current Version | Previous Version | Text Only | Print | Product List | Glossary On
Versions: 1 2 3 4 5 6 7 8 9 10 11 12 13 14 15 16 17 18
000
FTUS41 KCAR 011720
TAFBGR
TAF
KBGR 011720Z 0118/0218 30012KT P6SM FEW250
     FM020400 30004KT P6SM SCT250
     FM021300 06004KT 6SM -SN OVC030
     FM021400 06007KT 2SM -SN OVC015
     FM021500 06010KT 1/2SM SN OVC010=

USA.gov is the U.S. government's official web portal to all federal, state and local government web resources and services.